Time;durP1;ratioP1;P1;durP2;ratioP2;P2;SDS_P1;SDS_P2;PMS_P1;PMS_P2;Temp;Humidity;BMP_temperature;BMP_pressure;BME280_temperature;BME280_humidity;BME280_pressure;Samples;Min_cycle;Max_cycle;Signal;HPM_P1;HPM_P2
2023/12/24 00:01:10;;;;;;;50.80;47.40;;;;;;;;;;5064121;28;20052;-74
2023/12/24 00:03:42;;;;;;;48.75;45.65;;;;;;;;;;5064818;28;20411;-74
2023/12/24 00:06:13;;;;;;;52.35;48.40;;;;;;;;;;5064572;28;20041;-74
2023/12/24 00:08:44;;;;;;;41.45;38.83;;;;;;;;;;5062981;28;20048;-75
2023/12/24 00:11:15;;;;;;;37.47;34.70;;;;;;;;;;5064046;28;20099;-76
2023/12/24 00:13:45;;;;;;;39.15;36.38;;;;;;;;;;5065295;28;20048;-74
2023/12/24 00:16:15;;;;;;;60.80;56.25;;;;;;;;;;5063541;28;20048;-73
2023/12/24 00:18:45;;;;;;;40.70;37.42;;;;;;;;;;5065038;28;20044;-76
2023/12/24 00:21:16;;;;;;;35.70;33.22;;;;;;;;;;5064665;28;20052;-74
2023/12/24 00:23:49;;;;;;;41.85;38.83;;;;;;;;;;5064100;28;20497;-76
2023/12/24 00:26:20;;;;;;;39.58;36.75;;;;;;;;;;5062763;28;20059;-75
2023/12/24 00:28:51;;;;;;;41.58;38.58;;;;;;;;;;5063583;28;20036;-73
2023/12/24 00:31:22;;;;;;;38.25;35.63;;;;;;;;;;5064001;28;20044;-73
2023/12/24 00:33:53;;;;;;;39.80;37.08;;;;;;;;;;5062821;28;20084;-74
2023/12/24 00:36:24;;;;;;;36.45;33.83;;;;;;;;;;5062214;28;20522;-74
2023/12/24 00:38:54;;;;;;;36.67;34.15;;;;;;;;;;5063216;28;20052;-74
2023/12/24 00:41:24;;;;;;;43.10;39.92;;;;;;;;;;5062698;28;20852;-73
2023/12/24 00:43:55;;;;;;;43.75;40.85;;;;;;;;;;5062623;28;20518;-73
2023/12/24 00:46:26;;;;;;;40.35;37.42;;;;;;;;;;5063692;28;20127;-74
2023/12/24 00:48:56;;;;;;;38.95;35.65;;;;;;;;;;5064498;28;20067;-74
2023/12/24 00:51:26;;;;;;;33.58;31.15;;;;;;;;;;5063851;28;20052;-75
2023/12/24 00:53:56;;;;;;;34.10;31.55;;;;;;;;;;5064597;28;20053;-75
2023/12/24 00:56:27;;;;;;;29.85;28.05;;;;;;;;;;5063721;28;20064;-77
2023/12/24 00:58:58;;;;;;;35.13;32.78;;;;;;;;;;5061412;28;20060;-73
2023/12/24 01:01:29;;;;;;;38.50;35.90;;;;;;;;;;5062263;28;20419;-75
2023/12/24 01:04:00;;;;;;;43.10;39.85;;;;;;;;;;5063902;28;20052;-75
2023/12/24 01:06:30;;;;;;;39.53;36.92;;;;;;;;;;5063863;28;20040;-76
2023/12/24 01:09:01;;;;;;;34.75;32.53;;;;;;;;;;5062315;28;20526;-74
2023/12/24 01:11:32;;;;;;;35.75;33.25;;;;;;;;;;5063847;28;20056;-75
2023/12/24 01:14:02;;;;;;;24.90;22.95;;;;;;;;;;5064055;28;20044;-76
2023/12/24 01:16:33;;;;;;;38.03;35.33;;;;;;;;;;5063947;28;20419;-74
2023/12/24 01:19:07;;;;;;;35.13;32.70;;;;;;;;;;5062816;28;20055;-72
2023/12/24 01:21:38;;;;;;;37.78;35.22;;;;;;;;;;5063933;28;20052;-77
2023/12/24 01:24:09;;;;;;;39.33;36.40;;;;;;;;;;5064291;28;20048;-73
2023/12/24 01:26:40;;;;;;;40.80;38.08;;;;;;;;;;5063796;28;20048;-77
2023/12/24 01:29:10;;;;;;;32.92;30.25;;;;;;;;;;5063156;28;20082;-76
2023/12/24 01:31:42;;;;;;;39.05;36.38;;;;;;;;;;5063555;28;20519;-74
2023/12/24 01:34:13;;;;;;;41.53;38.75;;;;;;;;;;5062176;28;20060;-74
2023/12/24 01:36:43;;;;;;;42.55;39.55;;;;;;;;;;5062287;28;20055;-74
2023/12/24 01:39:13;;;;;;;37.83;34.97;;;;;;;;;;5062085;28;20053;-75
2023/12/24 01:41:45;;;;;;;40.88;38.10;;;;;;;;;;5061642;28;20084;-73
2023/12/24 01:44:16;;;;;;;35.00;32.75;;;;;;;;;;5062486;28;20863;-75
2023/12/24 01:46:47;;;;;;;40.03;37.20;;;;;;;;;;5062418;28;20515;-75
2023/12/24 01:49:17;;;;;;;34.15;31.85;;;;;;;;;;5062294;28;20048;-76
2023/12/24 01:51:48;;;;;;;36.33;33.53;;;;;;;;;;5063780;28;20048;-73
2023/12/24 01:54:19;;;;;;;32.85;30.42;;;;;;;;;;5063112;28;20045;-75
2023/12/24 01:56:49;;;;;;;38.08;34.88;;;;;;;;;;5061542;28;20048;-75
2023/12/24 01:59:20;;;;;;;32.92;30.52;;;;;;;;;;5061900;28;20538;-74
2023/12/24 02:01:51;;;;;;;32.80;30.67;;;;;;;;;;5061891;28;20052;-73
2023/12/24 02:04:23;;;;;;;32.75;30.45;;;;;;;;;;5060994;28;20056;-75
2023/12/24 02:06:54;;;;;;;39.55;36.58;;;;;;;;;;5060930;28;20048;-74
2023/12/24 02:09:24;;;;;;;34.72;32.08;;;;;;;;;;5062337;28;20498;-76
2023/12/24 02:11:54;;;;;;;38.88;36.15;;;;;;;;;;5062154;28;20519;-74
2023/12/24 02:14:25;;;;;;;41.38;38.40;;;;;;;;;;5061006;28;20048;-73
2023/12/24 02:16:59;;;;;;;33.00;30.92;;;;;;;;;;5060876;28;20052;-74
2023/12/24 02:19:30;;;;;;;41.00;38.70;;;;;;;;;;5059874;28;20431;-77
2023/12/24 02:22:01;;;;;;;41.25;38.83;;;;;;;;;;5060468;28;20048;-76
2023/12/24 02:24:31;;;;;;;32.63;30.30;;;;;;;;;;5061526;28;20056;-77
2023/12/24 02:27:19;;;;;;;43.17;39.63;;;;;;;;;;5060909;28;20059;-73
2023/12/24 02:29:54;;;;;;;41.05;38.45;;;;;;;;;;5061540;28;20415;-78
2023/12/24 02:32:26;;;;;;;37.80;35.25;;;;;;;;;;5060797;28;20057;-79
2023/12/24 02:34:59;;;;;;;36.15;33.80;;;;;;;;;;5060279;28;20060;-75
2023/12/24 02:37:31;;;;;;;39.72;36.85;;;;;;;;;;5060913;28;20048;-76
2023/12/24 02:40:03;;;;;;;39.38;36.45;;;;;;;;;;5060884;28;20087;-76
2023/12/24 02:42:33;;;;;;;32.95;30.65;;;;;;;;;;5061639;28;20041;-76
2023/12/24 02:45:04;;;;;;;42.67;39.72;;;;;;;;;;5061204;28;20414;-75
2023/12/24 02:47:37;;;;;;;29.17;27.13;;;;;;;;;;5061773;28;20681;-76
2023/12/24 02:50:08;;;;;;;27.38;25.70;;;;;;;;;;5061378;28;20052;-73
2023/12/24 02:52:38;;;;;;;32.90;30.98;;;;;;;;;;5062133;28;20479;-77
2023/12/24 02:55:08;;;;;;;40.70;38.10;;;;;;;;;;5061446;28;20052;-73
2023/12/24 02:57:41;;;;;;;31.65;29.63;;;;;;;;;;5060020;28;20419;-77
2023/12/24 03:00:12;;;;;;;35.40;32.95;;;;;;;;;;5061419;28;20048;-75
2023/12/24 03:02:45;;;;;;;56.25;52.72;;;;;;;;;;5060580;28;20044;-73
2023/12/24 03:05:16;;;;;;;40.70;37.88;;;;;;;;;;5061584;28;20044;-75
2023/12/24 03:07:46;;;;;;;36.58;33.95;;;;;;;;;;5060661;28;20071;-75
2023/12/24 03:10:18;;;;;;;45.17;42.13;;;;;;;;;;5061338;28;20052;-75
2023/12/24 03:12:49;;;;;;;44.88;42.10;;;;;;;;;;5060405;28;20055;-73
2023/12/24 03:15:20;;;;;;;62.90;58.60;;;;;;;;;;5061929;28;20836;-72
2023/12/24 03:17:52;;;;;;;41.05;38.42;;;;;;;;;;5062239;28;20041;-76
2023/12/24 03:20:28;;;;;;;38.50;35.97;;;;;;;;;;5062327;28;20059;-76
2023/12/24 03:22:58;;;;;;;37.80;35.63;;;;;;;;;;5061945;28;20059;-75
2023/12/24 03:25:28;;;;;;;38.42;35.92;;;;;;;;;;5060448;28;20056;-74
2023/12/24 03:27:59;;;;;;;46.47;43.78;;;;;;;;;;5060957;28;20437;-75
2023/12/24 03:30:29;;;;;;;34.25;32.13;;;;;;;;;;5060779;28;20048;-75
2023/12/24 03:33:00;;;;;;;40.90;38.00;;;;;;;;;;5063537;28;20055;-74
2023/12/24 03:35:30;;;;;;;41.95;39.05;;;;;;;;;;5063849;28;20050;-75
2023/12/24 03:38:01;;;;;;;40.40;37.55;;;;;;;;;;5066053;28;20060;-76
2023/12/24 03:40:32;;;;;;;38.22;35.78;;;;;;;;;;5061201;28;20594;-75
2023/12/24 03:43:02;;;;;;;35.55;33.15;;;;;;;;;;5060891;28;20057;-76
2023/12/24 03:45:33;;;;;;;36.42;34.03;;;;;;;;;;5062250;28;20090;-75
2023/12/24 03:48:04;;;;;;;35.60;32.95;;;;;;;;;;5060994;28;20053;-74
2023/12/24 03:50:36;;;;;;;39.47;36.83;;;;;;;;;;5060671;28;20051;-74
2023/12/24 03:53:08;;;;;;;37.22;34.28;;;;;;;;;;5062262;28;20060;-76
2023/12/24 03:55:38;;;;;;;34.30;32.05;;;;;;;;;;5062277;28;20048;-73
2023/12/24 03:58:09;;;;;;;34.83;32.38;;;;;;;;;;5061797;28;20052;-74
2023/12/24 04:00:40;;;;;;;38.80;35.72;;;;;;;;;;5060273;28;20079;-77
2023/12/24 04:03:11;;;;;;;39.05;36.30;;;;;;;;;;5060637;28;20067;-75
2023/12/24 04:05:42;;;;;;;37.00;34.00;;;;;;;;;;5061819;28;20044;-74
2023/12/24 04:08:12;;;;;;;37.50;34.97;;;;;;;;;;5060773;28;20059;-74
2023/12/24 04:10:45;;;;;;;39.75;36.85;;;;;;;;;;5062102;28;20071;-74
2023/12/24 04:13:16;;;;;;;39.50;36.55;;;;;;;;;;5060784;28;20052;-74
2023/12/24 04:15:46;;;;;;;40.05;37.05;;;;;;;;;;5060466;28;20538;-76
2023/12/24 04:18:16;;;;;;;41.92;38.97;;;;;;;;;;5060489;28;20044;-75
2023/12/24 04:20:47;;;;;;;49.03;45.47;;;;;;;;;;5060394;28;20052;-76
2023/12/24 04:23:19;;;;;;;43.83;40.78;;;;;;;;;;5061597;28;20182;-72
2023/12/24 04:25:49;;;;;;;41.67;38.95;;;;;;;;;;5061735;28;20533;-73
2023/12/24 04:28:19;;;;;;;36.20;33.70;;;;;;;;;;5062213;28;20564;-75
2023/12/24 04:30:50;;;;;;;40.60;37.38;;;;;;;;;;5060169;28;20057;-76
2023/12/24 04:33:22;;;;;;;38.67;35.85;;;;;;;;;;5061758;28;20540;-74
2023/12/24 04:35:53;;;;;;;35.58;33.00;;;;;;;;;;5062095;28;20762;-75
2023/12/24 04:38:23;;;;;;;41.65;37.88;;;;;;;;;;5061892;28;20063;-76
2023/12/24 04:40:54;;;;;;;38.05;35.50;;;;;;;;;;5064139;28;20098;-74
2023/12/24 04:43:24;;;;;;;40.85;37.88;;;;;;;;;;5062106;28;20103;-74
2023/12/24 04:45:55;;;;;;;42.17;39.35;;;;;;;;;;5062631;28;20052;-76
2023/12/24 04:48:26;;;;;;;46.13;43.25;;;;;;;;;;5062620;28;20044;-74
2023/12/24 04:50:57;;;;;;;41.47;38.65;;;;;;;;;;5062738;28;20048;-75
2023/12/24 04:53:28;;;;;;;51.47;47.55;;;;;;;;;;5062765;28;20064;-76
2023/12/24 04:55:59;;;;;;;41.25;38.00;;;;;;;;;;5063795;28;20040;-74
2023/12/24 04:58:30;;;;;;;43.00;39.75;;;;;;;;;;5062373;28;20063;-74
2023/12/24 05:01:05;;;;;;;44.00;40.38;;;;;;;;;;5062292;28;20056;-75
2023/12/24 05:03:36;;;;;;;42.97;39.33;;;;;;;;;;5063932;28;20059;-75
2023/12/24 05:06:06;;;;;;;39.78;36.90;;;;;;;;;;5047197;28;20099;-76
2023/12/24 05:08:39;;;;;;;44.75;41.30;;;;;;;;;;5062572;28;20056;-76
2023/12/24 05:11:09;;;;;;;39.08;36.03;;;;;;;;;;5062340;28;20648;-73
2023/12/24 05:13:40;;;;;;;37.00;34.08;;;;;;;;;;5062951;28;20052;-76
2023/12/24 05:16:11;;;;;;;40.03;37.22;;;;;;;;;;5061885;28;20052;-75
2023/12/24 05:18:42;;;;;;;33.78;31.45;;;;;;;;;;5063548;28;20055;-74
2023/12/24 05:21:14;;;;;;;37.63;34.88;;;;;;;;;;5062752;28;20057;-72
2023/12/24 05:23:44;;;;;;;38.22;35.55;;;;;;;;;;5064958;28;20045;-74
2023/12/24 05:26:15;;;;;;;37.85;35.03;;;;;;;;;;5064237;28;20052;-75
2023/12/24 05:28:45;;;;;;;37.83;34.92;;;;;;;;;;5064019;28;20047;-75
2023/12/24 05:31:15;;;;;;;36.35;33.90;;;;;;;;;;5063210;28;20044;-74
2023/12/24 05:33:47;;;;;;;38.63;35.97;;;;;;;;;;5063941;28;20671;-75
2023/12/24 05:36:18;;;;;;;38.47;35.58;;;;;;;;;;5063976;28;20044;-76
2023/12/24 05:38:49;;;;;;;38.92;35.92;;;;;;;;;;5063881;28;20052;-75
2023/12/24 05:41:19;;;;;;;39.75;36.70;;;;;;;;;;5063917;28;20059;-75
2023/12/24 05:43:50;;;;;;;37.70;34.97;;;;;;;;;;5063703;28;20052;-75
2023/12/24 05:46:23;;;;;;;36.22;33.83;;;;;;;;;;5061659;28;20415;-75
2023/12/24 05:48:55;;;;;;;33.28;30.83;;;;;;;;;;5062846;28;20055;-75
2023/12/24 05:51:25;;;;;;;38.53;35.63;;;;;;;;;;5062114;28;20068;-75
2023/12/24 05:53:55;;;;;;;46.72;43.35;;;;;;;;;;5062725;28;20492;-76
2023/12/24 05:56:26;;;;;;;31.92;29.63;;;;;;;;;;5062932;28;20052;-74
2023/12/24 05:58:56;;;;;;;36.35;33.83;;;;;;;;;;5062994;28;20516;-73
2023/12/24 06:01:28;;;;;;;40.47;37.78;;;;;;;;;;5062991;28;20431;-73
2023/12/24 06:03:59;;;;;;;40.40;37.45;;;;;;;;;;5061747;28;20411;-73
2023/12/24 06:06:29;;;;;;;40.92;37.88;;;;;;;;;;5062117;28;20060;-75
2023/12/24 06:09:00;;;;;;;32.72;30.40;;;;;;;;;;5062079;28;20855;-76
2023/12/24 06:11:32;;;;;;;36.33;33.63;;;;;;;;;;5061537;28;20056;-75
2023/12/24 06:14:02;;;;;;;44.80;41.33;;;;;;;;;;5061797;28;20503;-74
2023/12/24 06:16:32;;;;;;;34.67;32.35;;;;;;;;;;5062359;28;20052;-76
2023/12/24 06:19:03;;;;;;;37.80;35.17;;;;;;;;;;5061640;28;20049;-77
2023/12/24 06:21:35;;;;;;;34.28;31.48;;;;;;;;;;5061744;28;20047;-75
2023/12/24 06:24:08;;;;;;;41.08;38.03;;;;;;;;;;5061572;28;20048;-76
2023/12/24 06:26:39;;;;;;;41.47;38.50;;;;;;;;;;5061915;28;20044;-74
2023/12/24 06:29:09;;;;;;;38.00;35.47;;;;;;;;;;5062471;28;20049;-76
2023/12/24 06:31:40;;;;;;;44.95;41.90;;;;;;;;;;5061797;28;20052;-73
2023/12/24 06:34:11;;;;;;;36.05;33.33;;;;;;;;;;5061893;28;20052;-75
2023/12/24 06:36:41;;;;;;;33.88;31.20;;;;;;;;;;5061566;28;20750;-75
2023/12/24 06:39:11;;;;;;;39.58;36.47;;;;;;;;;;5062204;28;20051;-76
2023/12/24 06:41:45;;;;;;;38.30;35.72;;;;;;;;;;5061804;28;20426;-73
2023/12/24 06:44:17;;;;;;;33.58;30.95;;;;;;;;;;5061577;28;20051;-75
2023/12/24 06:46:48;;;;;;;43.58;40.53;;;;;;;;;;5061300;28;20492;-74
2023/12/24 06:49:19;;;;;;;34.45;31.95;;;;;;;;;;5061616;28;20047;-76
2023/12/24 06:51:49;;;;;;;38.80;36.08;;;;;;;;;;5059925;28;20052;-76
2023/12/24 06:54:20;;;;;;;38.58;36.17;;;;;;;;;;5061597;28;20044;-76
2023/12/24 06:56:51;;;;;;;37.83;34.78;;;;;;;;;;5060301;28;20056;-76
2023/12/24 06:59:20;;;;;;;34.83;32.10;;;;;;;;;;5061532;28;20048;-75
2023/12/24 07:01:51;;;;;;;39.42;36.22;;;;;;;;;;5062147;28;20048;-74
2023/12/24 07:04:23;;;;;;;38.20;35.40;;;;;;;;;;5061579;28;20044;-73
2023/12/24 07:06:56;;;;;;;35.58;32.83;;;;;;;;;;5064273;28;20052;-75
2023/12/24 07:09:26;;;;;;;35.78;33.25;;;;;;;;;;5064490;28;20044;-74
2023/12/24 07:11:57;;;;;;;37.72;35.35;;;;;;;;;;5064099;28;20052;-74
2023/12/24 07:14:27;;;;;;;39.58;36.97;;;;;;;;;;5065548;28;20044;-75
2023/12/24 07:16:57;;;;;;;38.83;36.15;;;;;;;;;;5065833;28;20134;-75
2023/12/24 07:19:28;;;;;;;33.85;31.55;;;;;;;;;;5065173;28;20048;-74
2023/12/24 07:21:58;;;;;;;42.40;39.47;;;;;;;;;;5065155;28;20052;-76
2023/12/24 07:24:29;;;;;;;52.95;49.30;;;;;;;;;;5064709;28;20048;-76
2023/12/24 07:27:00;;;;;;;38.88;36.20;;;;;;;;;;5065298;28;20083;-73
2023/12/24 07:29:30;;;;;;;37.00;34.53;;;;;;;;;;5065459;28;20052;-76
2023/12/24 07:32:00;;;;;;;61.20;57.08;;;;;;;;;;5064747;28;20503;-75
2023/12/24 07:34:32;;;;;;;55.60;51.95;;;;;;;;;;5064932;28;20499;-76
2023/12/24 07:37:03;;;;;;;35.30;32.50;;;;;;;;;;5065533;28;20399;-75
2023/12/24 07:39:34;;;;;;;39.90;37.13;;;;;;;;;;5065338;28;20060;-75
2023/12/24 07:42:04;;;;;;;40.55;37.95;;;;;;;;;;5064821;28;20048;-74
2023/12/24 07:44:35;;;;;;;42.35;39.42;;;;;;;;;;5064660;28;20044;-73
2023/12/24 07:47:06;;;;;;;42.78;40.13;;;;;;;;;;5064957;28;20415;-75
2023/12/24 07:49:37;;;;;;;49.22;46.05;;;;;;;;;;5065133;28;20411;-76
2023/12/24 07:52:07;;;;;;;60.60;56.38;;;;;;;;;;5063796;28;20052;-77
2023/12/24 07:54:37;;;;;;;62.17;57.28;;;;;;;;;;5064128;28;20052;-75
2023/12/24 07:57:08;;;;;;;49.53;46.13;;;;;;;;;;5064858;28;20052;-74
2023/12/24 07:59:39;;;;;;;55.05;51.53;;;;;;;;;;5064625;28;20051;-73
2023/12/24 08:02:09;;;;;;;51.63;48.20;;;;;;;;;;5064189;28;20040;-73
2023/12/24 08:04:40;;;;;;;41.40;38.88;;;;;;;;;;5064547;28;20507;-74
2023/12/24 08:07:10;;;;;;;55.17;51.47;;;;;;;;;;5064413;28;20040;-74
2023/12/24 08:09:42;;;;;;;55.35;51.45;;;;;;;;;;5064293;28;20419;-73
2023/12/24 08:12:13;;;;;;;42.88;39.80;;;;;;;;;;5063944;28;20498;-76
2023/12/24 08:14:44;;;;;;;39.88;37.38;;;;;;;;;;5064241;28;20040;-75
2023/12/24 08:17:13;;;;;;;41.13;38.15;;;;;;;;;;5063954;28;20055;-74
2023/12/24 08:19:44;;;;;;;39.60;37.08;;;;;;;;;;5064326;28;20048;-74
2023/12/24 08:22:16;;;;;;;39.45;36.95;;;;;;;;;;5063726;28;20525;-74
2023/12/24 08:24:48;;;;;;;37.47;34.53;;;;;;;;;;5062790;28;20056;-76
2023/12/24 08:27:18;;;;;;;46.13;42.83;;;;;;;;;;5064931;28;20048;-76
2023/12/24 08:29:48;;;;;;;40.47;38.08;;;;;;;;;;5064178;28;20041;-77
2023/12/24 08:32:21;;;;;;;44.53;41.55;;;;;;;;;;5063623;28;20048;-75
2023/12/24 08:34:53;;;;;;;44.17;41.10;;;;;;;;;;5063692;28;20064;-76
2023/12/24 08:37:23;;;;;;;47.75;44.67;;;;;;;;;;5062536;28;20057;-77
2023/12/24 08:39:54;;;;;;;54.03;50.25;;;;;;;;;;5064046;28;20415;-75
2023/12/24 08:42:24;;;;;;;53.10;49.60;;;;;;;;;;5064098;28;20507;-74
2023/12/24 08:44:55;;;;;;;56.88;53.05;;;;;;;;;;5064304;28;20048;-77
2023/12/24 08:47:26;;;;;;;48.75;45.30;;;;;;;;;;5063761;28;20052;-74
2023/12/24 08:49:57;;;;;;;57.22;53.60;;;;;;;;;;5062719;28;20056;-73
2023/12/24 08:52:27;;;;;;;57.58;53.95;;;;;;;;;;5063770;28;20052;-76
2023/12/24 08:54:58;;;;;;;44.50;40.92;;;;;;;;;;5064764;28;20048;-74
2023/12/24 08:57:29;;;;;;;37.92;35.25;;;;;;;;;;5063029;28;20140;-76
2023/12/24 09:00:00;;;;;;;41.00;38.33;;;;;;;;;;5063102;28;20059;-77
2023/12/24 09:02:29;;;;;;;46.90;43.60;;;;;;;;;;5064053;28;20518;-77
2023/12/24 09:05:00;;;;;;;48.83;44.90;;;;;;;;;;5064265;28;20056;-74
2023/12/24 09:07:31;;;;;;;59.65;56.08;;;;;;;;;;5062541;28;20056;-76
2023/12/24 09:10:01;;;;;;;65.95;61.67;;;;;;;;;;5063187;28;20055;-77
2023/12/24 09:12:32;;;;;;;56.03;52.60;;;;;;;;;;5063614;28;20052;-73
2023/12/24 09:15:03;;;;;;;54.90;51.35;;;;;;;;;;5062783;28;20052;-76
2023/12/24 09:17:34;;;;;;;40.08;37.08;;;;;;;;;;5064050;28;20044;-73
2023/12/24 09:20:05;;;;;;;33.33;30.88;;;;;;;;;;5063826;28;20048;-76
2023/12/24 09:22:35;;;;;;;32.47;30.45;;;;;;;;;;5063371;28;20048;-76
2023/12/24 09:25:07;;;;;;;32.67;30.50;;;;;;;;;;5062096;28;20056;-75
2023/12/24 09:27:39;;;;;;;30.23;28.40;;;;;;;;;;5064327;28;20419;-77
2023/12/24 09:30:12;;;;;;;33.28;30.70;;;;;;;;;;5062614;28;20056;-77
2023/12/24 09:32:43;;;;;;;33.97;31.67;;;;;;;;;;5063198;28;20052;-76
2023/12/24 09:35:15;;;;;;;31.38;29.08;;;;;;;;;;5062816;28;20061;-77
2023/12/24 09:37:46;;;;;;;30.65;28.17;;;;;;;;;;5062152;28;20060;-74
2023/12/24 09:40:17;;;;;;;36.00;33.50;;;;;;;;;;5062774;28;20059;-76
2023/12/24 09:42:47;;;;;;;32.35;30.08;;;;;;;;;;5061382;28;20554;-75
2023/12/24 09:45:17;;;;;;;31.52;29.42;;;;;;;;;;5062360;28;20048;-73
2023/12/24 09:47:48;;;;;;;38.47;36.05;;;;;;;;;;5061127;28;20396;-74
2023/12/24 09:50:20;;;;;;;34.92;32.63;;;;;;;;;;5062799;28;20048;-74
2023/12/24 09:52:51;;;;;;;37.67;35.20;;;;;;;;;;5062458;28;20036;-75
2023/12/24 09:55:21;;;;;;;34.85;32.58;;;;;;;;;;5061791;28;20059;-75
2023/12/24 09:57:52;;;;;;;39.65;37.13;;;;;;;;;;5061046;28;20048;-77
2023/12/24 10:00:23;;;;;;;39.13;36.30;;;;;;;;;;5061909;28;20384;-76
2023/12/24 10:02:53;;;;;;;40.03;37.53;;;;;;;;;;5062411;28;20110;-75
2023/12/24 10:05:24;;;;;;;42.97;40.13;;;;;;;;;;5062186;28;20037;-76
2023/12/24 10:07:55;;;;;;;31.55;29.65;;;;;;;;;;5062124;28;20052;-74
2023/12/24 10:10:33;;;;;;;40.03;37.50;;;;;;;;;;5062288;28;20055;-74
2023/12/24 10:13:05;;;;;;;35.92;33.58;;;;;;;;;;5062222;28;20049;-76
2023/12/24 10:15:38;;;;;;;28.13;26.40;;;;;;;;;;5062854;28;20458;-76
2023/12/24 10:18:28;;;;;;;36.28;34.00;;;;;;;;;;5061803;28;20044;-75
2023/12/24 10:21:08;;;;;;;38.30;35.72;;;;;;;;;;5062126;28;20044;-75
2023/12/24 10:23:38;;;;;;;40.75;38.22;;;;;;;;;;5062139;28;20049;-75
2023/12/24 10:26:11;;;;;;;50.08;47.22;;;;;;;;;;5061619;28;20047;-77
2023/12/24 10:28:53;;;;;;;47.90;44.75;;;;;;;;;;5062202;28;20418;-73
2023/12/24 10:31:33;;;;;;;33.33;30.92;;;;;;;;;;5061758;28;20040;-74
2023/12/24 10:34:03;;;;;;;39.45;37.08;;;;;;;;;;5061029;28;20061;-77
2023/12/24 10:36:33;;;;;;;38.65;36.05;;;;;;;;;;5061595;28;20422;-74
2023/12/24 10:39:13;;;;;;;45.50;42.67;;;;;;;;;;5061418;28;20055;-75
2023/12/24 10:41:44;;;;;;;40.05;37.42;;;;;;;;;;5060654;28;20048;-75
2023/12/24 10:44:14;;;;;;;42.30;39.90;;;;;;;;;;5061485;28;20037;-76
2023/12/24 10:46:45;;;;;;;32.38;30.10;;;;;;;;;;5061567;28;20055;-75
2023/12/24 10:49:15;;;;;;;30.45;28.50;;;;;;;;;;5061193;28;20041;-74
2023/12/24 10:51:45;;;;;;;27.48;25.40;;;;;;;;;;5061791;28;20427;-74
2023/12/24 10:54:17;;;;;;;29.35;27.30;;;;;;;;;;5061440;28;20044;-74
2023/12/24 10:57:03;;;;;;;32.42;30.17;;;;;;;;;;5061974;28;20052;-74
2023/12/24 11:00:12;;;;;;;32.60;30.48;;;;;;;;;;5061448;28;20056;-77
2023/12/24 11:02:49;;;;;;;27.65;25.77;;;;;;;;;;5060515;28;20139;-75
2023/12/24 11:05:44;;;;;;;30.05;28.17;;;;;;;;;;5061360;28;20518;-76
2023/12/24 11:08:24;;;;;;;30.20;28.27;;;;;;;;;;5061279;28;20419;-75
2023/12/24 11:11:06;;;;;;;26.75;24.95;;;;;;;;;;5061433;28;20048;-77
2023/12/24 11:13:44;;;;;;;30.13;28.02;;;;;;;;;;5060658;28;20057;-74
2023/12/24 11:16:40;;;;;;;23.27;21.50;;;;;;;;;;5061589;28;20048;-74
2023/12/24 11:19:24;;;;;;;35.65;33.15;;;;;;;;;;5060741;28;20993;-75
2023/12/24 11:22:12;;;;;;;31.38;29.35;;;;;;;;;;5061002;28;20416;-75
2023/12/24 11:24:42;;;;;;;26.70;24.67;;;;;;;;;;5061384;28;20044;-75
2023/12/24 11:27:23;;;;;;;32.72;30.40;;;;;;;;;;5061604;28;20041;-77
2023/12/24 11:30:01;;;;;;;22.05;20.65;;;;;;;;;;5060967;28;20063;-81
2023/12/24 11:32:35;;;;;;;27.60;25.77;;;;;;;;;;5060006;28;20614;-75
2023/12/24 11:35:06;;;;;;;31.23;29.20;;;;;;;;;;5061700;28;20507;-74
2023/12/24 11:37:39;;;;;;;28.58;26.67;;;;;;;;;;5061224;28;20045;-76
2023/12/24 11:40:19;;;;;;;27.73;25.80;;;;;;;;;;5061026;28;20052;-76
2023/12/24 11:42:52;;;;;;;27.48;25.83;;;;;;;;;;5061595;28;20045;-75
2023/12/24 11:45:29;;;;;;;25.70;23.83;;;;;;;;;;5061910;28;20045;-83
2023/12/24 11:48:02;;;;;;;26.10;24.35;;;;;;;;;;5059674;28;20052;-74
2023/12/24 11:50:35;;;;;;;25.38;23.90;;;;;;;;;;5061329;28;20415;-77
2023/12/24 11:53:08;;;;;;;28.75;26.88;;;;;;;;;;5062666;28;20048;-77
2023/12/24 11:55:39;;;;;;;27.75;25.88;;;;;;;;;;5047642;28;20044;-76
2023/12/24 11:58:09;;;;;;;26.98;25.17;;;;;;;;;;5064110;28;20063;-75
2023/12/24 12:00:40;;;;;;;27.45;25.75;;;;;;;;;;5064299;28;20053;-78
2023/12/24 12:03:18;;;;;;;27.58;25.75;;;;;;;;;;5065093;28;20047;-76
2023/12/24 12:05:49;;;;;;;32.95;30.73;;;;;;;;;;5063965;28;20049;-75
2023/12/24 12:08:19;;;;;;;26.95;25.20;;;;;;;;;;5063090;28;20063;-76
2023/12/24 12:10:51;;;;;;;28.88;27.20;;;;;;;;;;5064850;28;20484;-75
2023/12/24 12:13:21;;;;;;;22.13;20.58;;;;;;;;;;5064450;28;20056;-75
2023/12/24 12:15:52;;;;;;;24.77;23.27;;;;;;;;;;5063907;28;20049;-78
2023/12/24 12:18:23;;;;;;;24.27;22.88;;;;;;;;;;5064822;28;20423;-76
2023/12/24 12:20:54;;;;;;;20.65;19.33;;;;;;;;;;5063904;28;20072;-76
2023/12/24 12:23:25;;;;;;;22.77;21.33;;;;;;;;;;5064452;28;20051;-77
2023/12/24 12:25:56;;;;;;;25.10;23.05;;;;;;;;;;5064276;28;20041;-75
2023/12/24 12:28:27;;;;;;;23.83;22.15;;;;;;;;;;5063258;28;20044;-76
2023/12/24 12:30:59;;;;;;;22.70;21.20;;;;;;;;;;5064226;28;20052;-76
2023/12/24 12:33:29;;;;;;;23.05;21.30;;;;;;;;;;5063893;28;20052;-74
2023/12/24 12:36:02;;;;;;;22.10;20.52;;;;;;;;;;5064015;28;20040;-77
2023/12/24 12:38:33;;;;;;;21.00;19.80;;;;;;;;;;5063592;28;20041;-78
2023/12/24 12:41:06;;;;;;;25.60;23.88;;;;;;;;;;5062576;28;20583;-77
2023/12/24 12:43:36;;;;;;;25.23;23.33;;;;;;;;;;5064146;28;20051;-75
2023/12/24 12:46:06;;;;;;;21.92;20.17;;;;;;;;;;5063246;28;20048;-76
2023/12/24 12:48:36;;;;;;;24.00;22.40;;;;;;;;;;5063983;28;20044;-75
2023/12/24 12:51:08;;;;;;;28.52;26.80;;;;;;;;;;5063991;28;20051;-77
2023/12/24 12:53:38;;;;;;;26.63;24.80;;;;;;;;;;5063980;28;20040;-76
2023/12/24 12:56:08;;;;;;;33.00;30.90;;;;;;;;;;5063958;28;20048;-76
2023/12/24 12:58:38;;;;;;;45.10;42.45;;;;;;;;;;5063027;28;20053;-77
2023/12/24 13:01:09;;;;;;;49.53;46.30;;;;;;;;;;5063665;28;20063;-76
2023/12/24 13:03:58;;;;;;;32.63;30.45;;;;;;;;;;5062438;28;20048;-74
2023/12/24 13:06:29;;;;;;;29.90;27.98;;;;;;;;;;5063692;28;20049;-77
2023/12/24 13:09:07;;;;;;;32.08;29.88;;;;;;;;;;5064679;28;20079;-76
2023/12/24 13:11:37;;;;;;;28.83;26.98;;;;;;;;;;5063264;28;20048;-75
2023/12/24 13:14:08;;;;;;;48.95;45.80;;;;;;;;;;5062843;28;20052;-75
2023/12/24 13:16:39;;;;;;;28.48;26.77;;;;;;;;;;5063026;28;20059;-76
2023/12/24 13:19:17;;;;;;;21.55;20.15;;;;;;;;;;5062465;28;20412;-75
2023/12/24 13:21:48;;;;;;;26.85;25.20;;;;;;;;;;5062274;28;20044;-76
2023/12/24 13:24:21;;;;;;;22.70;21.40;;;;;;;;;;5062586;28;20055;-76
2023/12/24 13:26:52;;;;;;;23.92;22.33;;;;;;;;;;5060891;28;20048;-76
2023/12/24 13:29:22;;;;;;;34.15;31.98;;;;;;;;;;5062723;28;20056;-75
2023/12/24 13:31:52;;;;;;;37.45;35.05;;;;;;;;;;5062131;28;20059;-77
2023/12/24 13:34:23;;;;;;;27.13;25.33;;;;;;;;;;5056582;28;20071;-75
2023/12/24 13:36:55;;;;;;;18.65;17.55;;;;;;;;;;5042143;28;20033;-75
2023/12/24 13:39:26;;;;;;;24.60;23.00;;;;;;;;;;5042516;28;20037;-75
2023/12/24 13:41:56;;;;;;;35.17;33.00;;;;;;;;;;5042837;28;20598;-75
2023/12/24 13:44:26;;;;;;;39.33;36.45;;;;;;;;;;5042406;28;20425;-77
2023/12/24 13:46:57;;;;;;;31.30;29.27;;;;;;;;;;5042705;28;20507;-76
2023/12/24 13:49:28;;;;;;;33.92;31.70;;;;;;;;;;5042063;28;20411;-76
2023/12/24 13:51:59;;;;;;;37.33;35.10;;;;;;;;;;5042449;28;20175;-75
2023/12/24 13:54:30;;;;;;;36.15;33.97;;;;;;;;;;5042758;28;20052;-75
2023/12/24 13:57:01;;;;;;;23.63;21.92;;;;;;;;;;5042442;28;20557;-76
2023/12/24 13:59:33;;;;;;;28.25;26.33;;;;;;;;;;5041821;28;20415;-76
2023/12/24 14:02:09;;;;;;;24.55;22.80;;;;;;;;;;5041629;28;20431;-75
2023/12/24 14:04:41;;;;;;;27.27;25.52;;;;;;;;;;5049293;28;20041;-75
2023/12/24 14:07:12;;;;;;;25.20;23.60;;;;;;;;;;5052143;28;20036;-78
2023/12/24 14:09:55;;;;;;;32.47;30.63;;;;;;;;;;5058142;28;20451;-75
2023/12/24 14:12:25;;;;;;;57.38;53.88;;;;;;;;;;5061274;28;20067;-75
2023/12/24 14:14:56;;;;;;;46.95;43.60;;;;;;;;;;5061164;28;20052;-73
2023/12/24 14:17:29;;;;;;;31.70;29.88;;;;;;;;;;5061864;28;20048;-74
2023/12/24 14:20:01;;;;;;;31.77;29.85;;;;;;;;;;5062176;28;20040;-78
2023/12/24 14:22:32;;;;;;;32.47;30.35;;;;;;;;;;5055439;28;20033;-72
2023/12/24 14:25:04;;;;;;;34.30;32.20;;;;;;;;;;5040998;28;20052;-75
2023/12/24 14:27:35;;;;;;;39.70;37.30;;;;;;;;;;5041426;28;20416;-74
2023/12/24 14:30:08;;;;;;;36.72;34.45;;;;;;;;;;5042035;28;20574;-74
2023/12/24 14:32:39;;;;;;;33.38;31.33;;;;;;;;;;5041675;28;20045;-74
2023/12/24 14:35:09;;;;;;;25.13;23.70;;;;;;;;;;5041360;28;20056;-76
2023/12/24 14:37:39;;;;;;;22.08;20.58;;;;;;;;;;5041378;28;20048;-74
2023/12/24 14:40:10;;;;;;;26.67;25.13;;;;;;;;;;5041231;28;20044;-73
2023/12/24 14:42:42;;;;;;;28.15;26.55;;;;;;;;;;5041857;28;20064;-75